createdAt,value
2018-11-03T00:00:35.459Z,15.2
2018-11-03T00:01:35.444Z,14.9
2018-11-03T00:02:35.384Z,14.6
2018-11-03T00:03:36.418Z,14.2
2018-11-03T00:04:35.393Z,14
2018-11-03T00:05:35.384Z,13.8
2018-11-03T00:06:35.436Z,13.6
2018-11-03T00:07:35.372Z,13.4
2018-11-03T00:08:35.984Z,13
2018-11-03T00:09:35.445Z,12.8
2018-11-03T00:10:35.373Z,12.7
2018-11-03T00:11:35.437Z,12.6
2018-11-03T00:12:35.371Z,12.5
2018-11-03T00:13:35.380Z,12.3
2018-11-03T00:14:35.983Z,12.1
2018-11-03T00:15:35.394Z,12.1
2018-11-03T00:16:36.506Z,12.2
2018-11-03T00:17:35.385Z,12.3
2018-11-03T00:18:35.937Z,12.5
2018-11-03T00:19:35.372Z,12.8
2018-11-03T00:20:36.069Z,13.1
2018-11-03T00:21:35.998Z,13.4
2018-11-03T00:22:36.007Z,13.7
2018-11-03T00:23:35.375Z,13.9
2018-11-03T00:24:36.561Z,14.3
2018-11-03T00:25:35.416Z,14.7
2018-11-03T00:26:35.458Z,15.3
2018-11-03T00:27:35.380Z,15.8
2018-11-03T00:28:35.415Z,16.4
2018-11-03T00:29:35.370Z,16.9
2018-11-03T00:30:35.395Z,17.2
2018-11-03T00:31:35.943Z,17.4
2018-11-03T00:32:35.387Z,17.6
2018-11-03T00:33:35.380Z,17.9
2018-11-03T00:34:35.965Z,17.9
2018-11-03T00:35:35.354Z,17.8
2018-11-03T00:36:35.434Z,17.8
2018-11-03T00:37:35.443Z,17.7
2018-11-03T00:38:35.359Z,17.7
2018-11-03T00:39:35.364Z,17.7
2018-11-03T00:40:36.384Z,17.6
2018-11-03T00:41:35.409Z,17.6
2018-11-03T00:42:35.432Z,17.6
2018-11-03T00:43:36.111Z,17.4
2018-11-03T00:44:35.423Z,17
2018-11-03T00:45:35.999Z,16.5
2018-11-03T00:46:35.348Z,16
2018-11-03T00:47:35.427Z,15.5
2018-11-03T00:48:35.351Z,15
2018-11-03T00:49:35.365Z,14.6
2018-11-03T00:50:35.953Z,14.2
2018-11-03T00:51:36.025Z,13.7
2018-11-03T00:52:35.431Z,13.2
2018-11-03T00:53:36.261Z,12.7
2018-11-03T00:54:35.365Z,12.1
2018-11-03T00:55:35.353Z,11.5
2018-11-03T00:56:35.428Z,10.9
2018-11-03T00:57:36.135Z,10.3
2018-11-03T00:58:35.361Z,9.7
2018-11-03T00:59:35.348Z,9.4
2018-11-03T01:00:35.434Z,9
2018-11-03T01:01:35.352Z,8.6
2018-11-03T01:02:35.350Z,8.2
2018-11-03T01:03:36.086Z,7.8
2018-11-03T01:04:35.374Z,7.2
2018-11-03T01:05:36.066Z,6.7
2018-11-03T01:06:35.434Z,6
2018-11-03T01:07:36.041Z,5.4
2018-11-03T01:08:35.347Z,4.9
2018-11-03T01:09:35.372Z,4.5
2018-11-03T01:10:35.344Z,4
2018-11-03T01:11:35.855Z,3.7
2018-11-03T01:12:35.353Z,3.3
2018-11-03T01:13:37.104Z,3
2018-11-03T01:14:35.364Z,2.7
2018-11-03T01:15:35.359Z,2.5
2018-11-03T01:16:35.350Z,2.2
2018-11-03T01:17:36.332Z,2
2018-11-03T01:18:36.334Z,1.8
2018-11-03T01:19:35.356Z,1.7
2018-11-03T01:20:35.401Z,1.5
2018-11-03T01:21:37.438Z,1.4
2018-11-03T01:22:35.341Z,1.2
2018-11-03T01:23:37.025Z,1.1
2018-11-03T01:24:35.339Z,1
2018-11-03T01:25:36.172Z,0.9
2018-11-03T01:26:35.359Z,0.8
2018-11-03T01:27:35.967Z,0.8
2018-11-03T01:28:35.409Z,0.7
2018-11-03T01:29:35.967Z,0.6
2018-11-03T01:30:35.341Z,0.6
2018-11-03T01:31:35.363Z,0.5
2018-11-03T01:32:36.287Z,0.5
2018-11-03T01:33:35.363Z,0.4
2018-11-03T01:34:35.358Z,0.4
2018-11-03T01:35:35.409Z,0.3
2018-11-03T01:36:35.873Z,0.3
2018-11-03T01:37:35.336Z,0.3
2018-11-03T01:38:35.336Z,0.3
2018-11-03T01:39:35.344Z,0.2
2018-11-03T01:40:35.415Z,0.2
2018-11-03T01:41:35.329Z,0.2
2018-11-03T01:42:35.970Z,0.4
2018-11-03T01:43:35.378Z,0.6
2018-11-03T01:44:35.358Z,0.7
2018-11-03T01:45:36.313Z,0.6
2018-11-03T01:46:35.335Z,0.7
2018-11-03T01:47:35.399Z,0.7
2018-11-03T01:48:35.422Z,0.7
2018-11-03T01:49:35.339Z,0.7
2018-11-03T01:50:35.352Z,0.9
2018-11-03T01:51:35.352Z,1.1
2018-11-03T01:52:35.393Z,1.5
2018-11-03T01:53:35.348Z,1.8
2018-11-03T01:54:36.509Z,2.1
2018-11-03T01:55:35.332Z,2.3
2018-11-03T01:56:35.331Z,2.5
2018-11-03T01:57:36.311Z,2.7
2018-11-03T01:58:36.026Z,2.7
2018-11-03T01:59:36.933Z,2.8
2018-11-03T02:00:35.325Z,2.7
2018-11-03T02:01:35.349Z,2.8
2018-11-03T02:02:35.880Z,2.9
2018-11-03T02:03:35.406Z,3
2018-11-03T02:04:36.016Z,3
2018-11-03T02:05:35.358Z,2.7
2018-11-03T02:06:35.339Z,2.5
2018-11-03T02:07:36.328Z,2.3
2018-11-03T02:08:35.394Z,2.1
2018-11-03T02:09:35.331Z,2.3
2018-11-03T02:10:35.326Z,2.5
2018-11-03T02:11:35.326Z,2.7
2018-11-03T02:12:35.375Z,2.7
2018-11-03T02:13:35.344Z,2.7
2018-11-03T02:14:35.317Z,2.7
2018-11-03T02:15:35.345Z,2.5
2018-11-03T02:16:36.267Z,2.4
2018-11-03T02:17:35.874Z,2.2
2018-11-03T02:18:35.410Z,2.1
2018-11-03T02:19:36.556Z,1.9
2018-11-03T02:20:35.412Z,1.8
2018-11-03T02:21:35.325Z,1.7
2018-11-03T02:22:35.996Z,1.6
2018-11-03T02:23:35.329Z,1.7
2018-11-03T02:24:36.308Z,2
2018-11-03T02:25:36.334Z,2.1
2018-11-03T02:26:35.323Z,2.2
2018-11-03T02:27:35.332Z,2.3
2018-11-03T02:28:35.317Z,2.2
2018-11-03T02:29:35.318Z,2
2018-11-03T02:30:35.337Z,1.9
2018-11-03T02:31:35.384Z,1.9
2018-11-03T02:32:36.039Z,2.2
2018-11-03T02:33:36.338Z,2.4
2018-11-03T02:34:35.329Z,2.7
2018-11-03T02:35:35.454Z,2.9
2018-11-03T02:36:35.830Z,3.4
2018-11-03T02:37:35.409Z,4.1
2018-11-03T02:38:35.470Z,4.7
2018-11-03T02:39:35.314Z,5.3
2018-11-03T02:40:35.335Z,5.9
2018-11-03T02:41:35.385Z,6.5
2018-11-03T02:42:35.336Z,7
2018-11-03T02:43:35.420Z,7.5
2018-11-03T02:44:35.346Z,8
2018-11-03T02:45:35.838Z,8.5
2018-11-03T02:46:35.326Z,9
2018-11-03T02:47:35.332Z,9.3
2018-11-03T02:48:35.388Z,9.5
2018-11-03T02:49:37.049Z,9.8
2018-11-03T02:50:37.055Z,9.9
2018-11-03T02:51:35.315Z,9.8
2018-11-03T02:52:35.303Z,9.8
2018-11-03T02:53:35.391Z,9.7
2018-11-03T02:54:35.377Z,9.7
2018-11-03T02:55:35.943Z,9.6
2018-11-03T02:56:35.907Z,9.6
2018-11-03T02:57:35.339Z,9.6
2018-11-03T02:58:36.134Z,9.6
2018-11-03T02:59:35.311Z,9.7
2018-11-03T03:00:35.330Z,9.7
2018-11-03T03:01:35.925Z,9.9
2018-11-03T03:02:35.313Z,10.1
2018-11-03T03:03:35.628Z,10.3
2018-11-03T03:04:35.340Z,10.5
2018-11-03T03:05:35.338Z,10.6
2018-11-03T03:06:35.319Z,10.6
2018-11-03T03:07:36.319Z,10.6
2018-11-03T03:08:35.913Z,10.4
2018-11-03T03:09:36.038Z,10.5
2018-11-03T03:10:35.376Z,10.6
2018-11-03T03:11:35.344Z,10.5
2018-11-03T03:12:35.363Z,10.5
2018-11-03T03:13:35.404Z,10.3
2018-11-03T03:14:35.305Z,10.1
2018-11-03T03:15:35.298Z,9.8
2018-11-03T03:16:35.303Z,9.5
2018-11-03T03:17:35.431Z,9.3
2018-11-03T03:18:35.347Z,9.1
2018-11-03T03:19:36.167Z,9
2018-11-03T03:20:35.898Z,9.2
2018-11-03T03:21:35.309Z,9.5
2018-11-03T03:22:36.325Z,9.8
2018-11-03T03:23:35.309Z,10.1
2018-11-03T03:24:35.358Z,10.3
2018-11-03T03:25:35.366Z,10.4
2018-11-03T03:26:35.322Z,10.3
2018-11-03T03:27:35.299Z,10.2
2018-11-03T03:28:35.343Z,10.1
2018-11-03T03:29:36.148Z,10
2018-11-03T03:30:35.840Z,9.9
2018-11-03T03:31:36.330Z,9.9
2018-11-03T03:32:35.298Z,10
2018-11-03T03:33:35.311Z,10.1
2018-11-03T03:34:35.370Z,10
2018-11-03T03:35:35.301Z,9.8
2018-11-03T03:36:35.328Z,9.5
2018-11-03T03:37:36.012Z,9.3
2018-11-03T03:38:36.329Z,9
2018-11-03T03:39:35.307Z,8.8
2018-11-03T03:40:35.293Z,8.6
2018-11-03T03:41:36.076Z,8.4
2018-11-03T03:42:35.293Z,8.5
2018-11-03T03:43:35.306Z,8.6
2018-11-03T03:44:35.294Z,8.7
2018-11-03T03:45:35.295Z,8.8
2018-11-03T03:46:35.353Z,9.1
2018-11-03T03:47:35.369Z,9.3
2018-11-03T03:48:35.318Z,9.6
2018-11-03T03:49:35.869Z,9.8
2018-11-03T03:50:35.292Z,10.1
2018-11-03T03:51:37.699Z,10.3
2018-11-03T03:52:35.288Z,10.5
2018-11-03T03:53:35.288Z,10.4
2018-11-03T03:54:35.332Z,10.3
2018-11-03T03:55:35.350Z,10.3
2018-11-03T03:56:35.282Z,10.2
2018-11-03T03:57:35.801Z,10.1
2018-11-03T03:58:35.291Z,10.1
2018-11-03T03:59:35.360Z,9.9
2018-11-03T04:00:35.298Z,9.8
2018-11-03T04:01:35.295Z,9.7
2018-11-03T04:02:35.287Z,9.6
2018-11-03T04:03:35.291Z,9.6
2018-11-03T04:04:36.360Z,9.6
2018-11-03T04:05:35.296Z,9.7
2018-11-03T04:06:35.988Z,9.9
2018-11-03T04:07:35.311Z,9.9
2018-11-03T04:08:36.780Z,9.9
2018-11-03T04:09:35.340Z,9.9
2018-11-03T04:10:38.876Z,9.8
2018-11-03T04:11:35.293Z,9.8
2018-11-03T04:12:35.472Z,9.8
2018-11-03T04:13:35.303Z,9.7
2018-11-03T04:14:35.347Z,9.7
2018-11-03T04:15:35.935Z,9.7
2018-11-03T04:16:35.272Z,9.4
2018-11-03T04:17:35.296Z,9.3
2018-11-03T04:18:35.349Z,9.3
2018-11-03T04:19:35.352Z,9.5
2018-11-03T04:20:35.316Z,9.7
2018-11-03T04:21:35.333Z,9.9
2018-11-03T04:22:35.386Z,10.2
2018-11-03T04:23:36.275Z,10.4
2018-11-03T04:24:35.941Z,10.6
2018-11-03T04:25:36.021Z,10.8
2018-11-03T04:26:36.309Z,11.1
2018-11-03T04:27:36.452Z,11.2
2018-11-03T04:28:36.283Z,11.3
2018-11-03T04:29:35.334Z,11.3
2018-11-03T04:30:35.278Z,11.1
2018-11-03T04:31:36.262Z,11
2018-11-03T04:33:37.556Z,0.8
2018-11-03T04:34:37.468Z,1.7
2018-11-03T04:35:37.536Z,2.4
2018-11-03T04:36:37.490Z,3.1
2018-11-03T04:37:37.498Z,3.7
2018-11-03T04:38:37.469Z,4.2
2018-11-03T04:39:37.534Z,4.7
2018-11-03T04:40:37.483Z,5
2018-11-03T04:41:38.781Z,5.3
2018-11-03T04:42:37.467Z,5.4
2018-11-03T04:43:37.467Z,5.4
2018-11-03T04:44:37.541Z,5.4
2018-11-03T04:45:38.510Z,5.4
2018-11-03T04:46:38.166Z,5.3
2018-11-03T04:47:37.549Z,5.3
2018-11-03T04:48:37.541Z,5.2
2018-11-03T04:49:38.347Z,5.3
2018-11-03T04:50:38.190Z,5.4
2018-11-03T04:51:37.475Z,5.6
2018-11-03T04:52:37.474Z,5.9
2018-11-03T04:53:37.490Z,6.2
2018-11-03T04:54:37.554Z,6.6
2018-11-03T04:55:39.126Z,6.8
2018-11-03T04:56:37.461Z,7.1
2018-11-03T04:57:37.453Z,7.4
2018-11-03T04:58:38.475Z,7.6
2018-11-03T04:59:38.032Z,8
2018-11-03T05:00:37.533Z,8.2
2018-11-03T05:01:37.476Z,8.5
2018-11-03T05:02:38.071Z,8.9
2018-11-03T05:03:37.459Z,9
2018-11-03T05:04:38.447Z,9.1
2018-11-03T05:05:37.522Z,9.1
2018-11-03T05:06:38.471Z,8.9
2018-11-03T05:07:37.452Z,8.7
2018-11-03T05:08:37.530Z,8.5
2018-11-03T05:09:43.249Z,0.6
2018-11-03T05:10:43.139Z,1.3
2018-11-03T05:11:43.113Z,1.9
2018-11-03T05:12:43.122Z,2.7
2018-11-03T05:13:43.129Z,3.5
2018-11-03T05:14:43.180Z,4.4
2018-11-03T05:15:43.110Z,5.2
2018-11-03T05:16:43.176Z,5.9
2018-11-03T05:17:43.123Z,6.6
2018-11-03T05:18:43.171Z,7
2018-11-03T05:19:43.178Z,7.5
2018-11-03T05:20:43.126Z,8
2018-11-03T05:21:43.103Z,8.4
2018-11-03T05:22:43.775Z,8.8
2018-11-03T05:23:44.176Z,8.9
2018-11-03T05:24:43.101Z,8.7
2018-11-03T05:25:43.759Z,8.6
2018-11-03T05:26:43.109Z,8.4
2018-11-03T05:27:43.186Z,8.2
2018-11-03T05:28:43.104Z,8.2
2018-11-03T05:29:43.101Z,8.3
2018-11-03T05:30:43.630Z,8.4
2018-11-03T05:31:43.097Z,8.5
2018-11-03T05:32:43.146Z,8.6
2018-11-03T05:33:43.160Z,8.7
2018-11-03T05:34:43.096Z,8.8
2018-11-03T05:35:46.262Z,9
2018-11-03T05:36:43.629Z,9.3
2018-11-03T05:37:43.194Z,9.6
2018-11-03T05:38:43.105Z,9.8
2018-11-03T05:39:43.116Z,10.1
2018-11-03T05:40:44.090Z,10.3
2018-11-03T05:41:43.160Z,10.4
2018-11-03T05:42:43.160Z,10.4
2018-11-03T05:43:44.587Z,10.2
2018-11-03T05:44:43.206Z,10.1
2018-11-03T05:45:43.134Z,10
2018-11-03T05:46:43.255Z,9.9
2018-11-03T05:47:43.165Z,9.7
2018-11-03T05:48:43.874Z,9.5
2018-11-03T05:49:43.622Z,9.2
2018-11-03T05:50:43.094Z,9
2018-11-03T05:51:43.111Z,8.5
2018-11-03T05:52:43.111Z,8
2018-11-03T05:53:43.156Z,7.7
2018-11-03T05:54:43.100Z,7.4
2018-11-03T05:55:43.089Z,7
2018-11-03T05:56:44.088Z,6.7
2018-11-03T05:57:43.713Z,6.3
2018-11-03T05:58:43.130Z,6
2018-11-03T05:59:45.640Z,5.8
2018-11-03T06:00:49.614Z,0.3
2018-11-03T06:01:48.975Z,0.7
2018-11-03T06:02:49.707Z,1.2
2018-11-03T06:03:48.977Z,1.7
2018-11-03T06:04:49.495Z,2.2
2018-11-03T06:05:49.568Z,2.6
2018-11-03T06:06:48.988Z,3.1
2018-11-03T06:07:48.980Z,3.7
2018-11-03T06:08:49.112Z,4.1
2018-11-03T06:09:48.991Z,4.6
2018-11-03T06:10:50.212Z,4.9
2018-11-03T06:11:50.725Z,5.2
2018-11-03T06:12:51.037Z,5.5
2018-11-03T06:13:50.162Z,5.7
2018-11-03T06:14:51.413Z,5.9
2018-11-03T06:15:49.605Z,6
2018-11-03T06:16:49.459Z,6
2018-11-03T06:17:51.801Z,6.1
2018-11-03T06:18:49.075Z,6.1
2018-11-03T06:19:50.690Z,6.2
2018-11-03T06:20:50.618Z,6.2
2018-11-03T06:21:50.483Z,6.3
2018-11-03T06:22:51.958Z,6.3
2018-11-03T06:23:50.038Z,6.3
2018-11-03T06:24:50.047Z,6.3
2018-11-03T06:25:50.581Z,6.4
2018-11-03T06:26:50.312Z,6.4
2018-11-03T06:27:50.097Z,6.5
2018-11-03T06:28:50.493Z,6.5
2018-11-03T06:29:49.212Z,6.7
2018-11-03T06:30:49.413Z,6.7
2018-11-03T06:31:51.069Z,7
2018-11-03T06:32:50.495Z,7.2
2018-11-03T06:33:49.110Z,7.2
2018-11-03T06:34:54.739Z,7.2
2018-11-03T06:35:49.282Z,7.1
2018-11-03T06:36:48.961Z,6.9
2018-11-03T06:37:49.771Z,6.6
2018-11-03T06:38:49.017Z,6.4
2018-11-03T06:39:49.053Z,6.1
2018-11-03T06:40:48.966Z,6
2018-11-03T06:41:49.464Z,6.1
2018-11-03T06:42:48.961Z,6.1
2018-11-03T06:43:49.611Z,6.2
2018-11-03T06:44:49.708Z,6.2
2018-11-03T06:45:48.959Z,6.2
2018-11-03T06:46:49.025Z,6
2018-11-03T06:47:48.958Z,5.8
2018-11-03T06:48:49.020Z,5.5
2018-11-03T06:49:49.813Z,5
2018-11-03T06:50:49.030Z,4.6
2018-11-03T06:51:49.045Z,4.2
2018-11-03T06:52:48.969Z,3.8
2018-11-03T06:53:48.968Z,3.4
2018-11-03T06:54:49.029Z,3.1
2018-11-03T06:55:48.966Z,2.8
2018-11-03T06:56:51.083Z,2.5
2018-11-03T06:57:49.739Z,2.3
2018-11-03T06:58:48.956Z,2.1
2018-11-03T06:59:52.234Z,2.2
2018-11-03T07:00:49.056Z,2.6
2018-11-03T07:01:49.090Z,2.9
2018-11-03T07:02:52.512Z,3.1
2018-11-03T07:03:50.748Z,3.2
2018-11-03T07:04:49.024Z,3.3
2018-11-03T07:05:49.861Z,3.3
2018-11-03T07:06:51.326Z,3.2
2018-11-03T07:07:53.412Z,3
2018-11-03T07:08:50.189Z,2.7
2018-11-03T07:09:48.960Z,2.5
2018-11-03T07:10:50.283Z,2.2
2018-11-03T07:11:49.064Z,2
2018-11-03T07:12:49.027Z,1.8
2018-11-03T07:13:48.962Z,1.6
2018-11-03T07:14:48.948Z,1.5
2018-11-03T07:15:48.968Z,1.3
2018-11-03T07:16:50.091Z,1.2
2018-11-03T07:17:49.007Z,1.1
2018-11-03T07:18:48.947Z,1
2018-11-03T07:19:48.956Z,0.9
2018-11-03T07:20:48.970Z,0.8
2018-11-03T07:21:49.118Z,0.7
2018-11-03T07:22:49.495Z,0.7
2018-11-03T07:23:48.954Z,0.6
2018-11-03T07:24:49.025Z,0.5
2018-11-03T07:25:48.951Z,0.5
2018-11-03T07:26:48.964Z,0.4
2018-11-03T07:27:49.182Z,0.4
2018-11-03T07:28:49.669Z,0.4
2018-11-03T07:29:50.325Z,0.3
2018-11-03T07:30:48.955Z,0.3
2018-11-03T07:31:48.952Z,0.3
2018-11-03T07:32:48.959Z,0.2
2018-11-03T07:33:49.021Z,0.2
2018-11-03T07:34:49.069Z,0.2
2018-11-03T07:35:48.943Z,0.2
2018-11-03T07:36:48.958Z,0.2
2018-11-03T07:37:49.612Z,0.1
2018-11-03T07:38:49.010Z,0.1
2018-11-03T07:39:48.946Z,0.1
2018-11-03T07:40:49.072Z,0.1
2018-11-03T07:41:48.972Z,0.2
2018-11-03T07:42:50.154Z,0.5
2018-11-03T07:43:48.956Z,0.8
2018-11-03T07:44:48.984Z,1.2
2018-11-03T07:45:49.040Z,1.5
2018-11-03T07:46:49.652Z,1.5
2018-11-03T07:47:49.676Z,1.4
2018-11-03T07:48:50.278Z,1.2
2018-11-03T07:49:49.672Z,1.1
2018-11-03T07:50:49.738Z,1
2018-11-03T07:51:48.990Z,0.9
2018-11-03T07:52:49.067Z,0.8
2018-11-03T07:53:49.075Z,0.7
2018-11-03T07:54:49.074Z,0.7
2018-11-03T07:55:49.029Z,0.6
2018-11-03T07:56:49.040Z,0.5
2018-11-03T07:57:49.014Z,0.5
2018-11-03T07:58:49.011Z,0.5
2018-11-03T07:59:50.742Z,0.6
2018-11-03T08:00:50.532Z,0.5
2018-11-03T08:01:49.959Z,0.5
2018-11-03T08:02:48.992Z,0.5
2018-11-03T08:03:48.991Z,0.6
2018-11-03T08:04:48.979Z,0.6
2018-11-03T08:05:51.422Z,0.6
2018-11-03T08:06:49.050Z,0.5
2018-11-03T08:07:48.977Z,0.5
2018-11-03T08:08:49.044Z,0.4
2018-11-03T08:09:48.964Z,0.4
2018-11-03T08:10:49.044Z,0.7
2018-11-03T08:11:48.976Z,0.6
2018-11-03T08:12:49.481Z,0.6
2018-11-03T08:13:49.583Z,0.7
2018-11-03T08:14:48.939Z,0.7
2018-11-03T08:15:50.591Z,0.7
2018-11-03T08:16:49.533Z,0.7
2018-11-03T08:17:48.933Z,0.7
2018-11-03T08:18:48.937Z,0.6
2018-11-03T08:19:49.915Z,0.7
2018-11-03T08:20:49.771Z,0.7
2018-11-03T08:21:49.001Z,0.7
2018-11-03T08:22:50.366Z,0.7
2018-11-03T08:23:49.851Z,0.7
2018-11-03T08:24:48.948Z,0.9
2018-11-03T08:25:48.992Z,1
2018-11-03T08:26:49.606Z,1.2
2018-11-03T08:27:50.858Z,1.1
2018-11-03T08:28:49.039Z,1
2018-11-03T08:29:48.973Z,1
2018-11-03T08:30:48.960Z,1.1
2018-11-03T08:31:48.924Z,1.2
2018-11-03T08:32:49.049Z,1.4
2018-11-03T08:33:48.923Z,1.6
2018-11-03T08:34:48.949Z,1.4
2018-11-03T08:35:48.928Z,1.4
2018-11-03T08:36:49.568Z,1.3
2018-11-03T08:37:49.564Z,1.1
2018-11-03T08:38:48.932Z,1.1
2018-11-03T08:39:49.015Z,1.2
2018-11-03T08:40:48.959Z,1.2
2018-11-03T08:41:48.997Z,1.1
2018-11-03T08:42:49.636Z,1.1
2018-11-03T08:43:48.916Z,1.3
2018-11-03T08:44:50.287Z,1.4
2018-11-03T08:45:49.486Z,1.7
2018-11-03T08:46:48.995Z,1.6
2018-11-03T08:47:48.935Z,1.5
2018-11-03T08:48:48.955Z,1.6
2018-11-03T08:49:48.992Z,1.4
2018-11-03T08:50:48.923Z,1.4
2018-11-03T08:51:49.982Z,1.7
2018-11-03T08:52:49.483Z,2.1
2018-11-03T08:53:49.452Z,2.6
2018-11-03T08:54:49.587Z,2.7
2018-11-03T08:55:48.920Z,2.8
2018-11-03T08:56:49.983Z,2.8
2018-11-03T08:57:48.934Z,2.5
2018-11-03T08:58:48.914Z,2.3
2018-11-03T08:59:49.025Z,2.1
2018-11-03T09:00:48.925Z,1.9
2018-11-03T09:01:48.992Z,1.9
2018-11-03T09:02:48.981Z,2
2018-11-03T09:03:48.909Z,1.9
2018-11-03T09:04:48.917Z,2
2018-11-03T09:05:48.929Z,2.2
2018-11-03T09:06:48.928Z,2.3
2018-11-03T09:07:49.821Z,2.1
2018-11-03T09:08:48.941Z,2
2018-11-03T09:09:48.914Z,1.9
2018-11-03T09:10:48.902Z,1.9
2018-11-03T09:11:48.934Z,2
2018-11-03T09:12:49.583Z,1.8
2018-11-03T09:13:48.936Z,1.9
2018-11-03T09:14:48.918Z,1.8
2018-11-03T09:15:50.235Z,1.8
2018-11-03T09:16:48.912Z,1.7
2018-11-03T09:17:49.543Z,1.5
2018-11-03T09:18:48.983Z,1.4
2018-11-03T09:19:49.478Z,1.3
2018-11-03T09:20:48.910Z,1.2
2018-11-03T09:21:49.007Z,1.1
2018-11-03T09:22:48.926Z,1.1
2018-11-03T09:23:48.928Z,1
2018-11-03T09:24:48.918Z,0.9
2018-11-03T09:25:48.917Z,1.2
2018-11-03T09:26:51.790Z,1.6
2018-11-03T09:27:49.990Z,2
2018-11-03T09:28:48.984Z,2
2018-11-03T09:29:48.898Z,2
2018-11-03T09:30:48.949Z,2.1
2018-11-03T09:31:49.562Z,2.3
2018-11-03T09:32:48.911Z,2.5
2018-11-03T09:33:48.976Z,2.3
2018-11-03T09:34:50.111Z,2.4
2018-11-03T09:35:49.527Z,2.4
2018-11-03T09:36:48.978Z,2.5
2018-11-03T09:37:48.909Z,2.6
2018-11-03T09:38:49.126Z,2.4
2018-11-03T09:39:49.555Z,2.3
2018-11-03T09:40:48.924Z,2.1
2018-11-03T09:41:48.970Z,2.3
2018-11-03T09:42:49.592Z,2.3
2018-11-03T09:43:49.480Z,2.2
2018-11-03T09:44:49.003Z,2
2018-11-03T09:45:49.466Z,2.2
2018-11-03T09:46:48.978Z,2.3
2018-11-03T09:47:48.910Z,2.4
2018-11-03T09:48:48.912Z,2.3
2018-11-03T09:49:48.913Z,2.5
2018-11-03T09:50:49.072Z,2.3
2018-11-03T09:51:48.941Z,2.2
2018-11-03T09:52:48.938Z,2.4
2018-11-03T09:53:48.918Z,2.5
2018-11-03T09:54:48.901Z,2.4
2018-11-03T09:55:48.916Z,2.6
2018-11-03T09:56:49.053Z,2.7
2018-11-03T09:57:48.922Z,2.6
2018-11-03T09:58:48.902Z,2.4
2018-11-03T09:59:48.965Z,2.2
2018-11-03T10:00:48.905Z,2.1
2018-11-03T10:01:48.911Z,2
2018-11-03T10:02:48.910Z,1.9
2018-11-03T10:03:48.969Z,1.7
2018-11-03T10:04:48.977Z,1.6
2018-11-03T10:05:48.899Z,1.4
2018-11-03T10:06:48.903Z,1.3
2018-11-03T10:07:48.907Z,1.2
2018-11-03T10:08:48.960Z,1.1
2018-11-03T10:09:48.928Z,1
2018-11-03T10:10:48.915Z,0.9
2018-11-03T10:11:48.894Z,1.1
2018-11-03T10:12:48.912Z,1.6
2018-11-03T10:13:48.991Z,2
2018-11-03T10:14:48.896Z,2.3
2018-11-03T10:15:48.962Z,2.5
2018-11-03T10:16:48.957Z,2.4
2018-11-03T10:17:48.905Z,2.3
2018-11-03T10:18:48.968Z,2.2
2018-11-03T10:19:48.921Z,2.2
2018-11-03T10:20:48.933Z,2
2018-11-03T10:21:48.892Z,2
2018-11-03T10:22:49.005Z,2
2018-11-03T10:23:48.951Z,2.4
2018-11-03T10:24:48.913Z,2.2
2018-11-03T10:25:48.950Z,2.2
2018-11-03T10:26:48.976Z,2.8
2018-11-03T10:27:48.935Z,2.9
2018-11-03T10:28:48.888Z,2.8
2018-11-03T10:29:48.905Z,2.6
2018-11-03T10:30:48.896Z,2.5
2018-11-03T10:31:48.942Z,2.3
2018-11-03T10:32:48.909Z,2.5
2018-11-03T10:33:48.976Z,2.6
2018-11-03T10:34:48.882Z,2.4
2018-11-03T10:35:48.890Z,2.2
2018-11-03T10:36:48.970Z,2
2018-11-03T10:37:49.524Z,2
2018-11-03T10:38:48.909Z,2.1
2018-11-03T10:39:48.967Z,2.5
2018-11-03T10:40:48.916Z,2.9
2018-11-03T10:41:48.897Z,2.7
2018-11-03T10:42:48.892Z,2.8
2018-11-03T10:43:48.895Z,2.5
2018-11-03T10:44:48.959Z,2.8
2018-11-03T10:45:48.893Z,2.9
2018-11-03T10:46:48.893Z,2.8
2018-11-03T10:47:48.883Z,2.9
2018-11-03T10:48:48.896Z,3.1
2018-11-03T10:49:48.965Z,3.5
2018-11-03T10:50:48.911Z,3.4
2018-11-03T10:51:48.883Z,3.1
2018-11-03T10:52:48.922Z,3.1
2018-11-03T10:53:49.033Z,3.3
2018-11-03T10:54:48.950Z,3.4
2018-11-03T10:55:48.984Z,3.7
2018-11-03T10:56:48.907Z,3.9
2018-11-03T10:57:48.902Z,3.8
2018-11-03T10:58:48.898Z,3.5
2018-11-03T10:59:48.890Z,3.4
2018-11-03T11:00:48.904Z,3.8
2018-11-03T11:01:48.902Z,4.2
2018-11-03T11:02:48.949Z,4.3
2018-11-03T11:03:48.950Z,4.3
2018-11-03T11:04:51.594Z,4.1
2018-11-03T11:05:48.879Z,4
2018-11-03T11:06:48.886Z,4.1
2018-11-03T11:07:48.904Z,4.2
2018-11-03T11:08:48.899Z,4.4
2018-11-03T11:09:48.958Z,4.1
2018-11-03T11:10:48.880Z,4.2
2018-11-03T11:11:49.884Z,4.2
2018-11-03T11:12:49.640Z,4.2
2018-11-03T11:13:51.150Z,4.3
2018-11-03T11:14:50.546Z,4.1
2018-11-03T11:15:51.647Z,3.8
2018-11-03T11:16:51.707Z,3.5
2018-11-03T11:17:51.081Z,3.8
2018-11-03T11:18:51.037Z,4.4
2018-11-03T11:19:51.750Z,4.8
2018-11-03T11:20:50.912Z,4.9
2018-11-03T11:21:50.610Z,5.1
2018-11-03T11:22:51.298Z,4.7
2018-11-03T11:23:50.822Z,4.4
2018-11-03T11:24:51.493Z,4.7
2018-11-03T11:25:50.807Z,4.6
2018-11-03T11:26:50.902Z,4.7
2018-11-03T11:27:50.777Z,4.7
2018-11-03T11:28:51.106Z,4.5
2018-11-03T11:29:50.485Z,4.2
2018-11-03T11:30:50.654Z,3.9
2018-11-03T11:31:50.437Z,3.5
2018-11-03T11:32:51.720Z,3.6
2018-11-03T11:33:48.895Z,3.4
2018-11-03T11:34:48.931Z,3.6
2018-11-03T11:35:48.883Z,4.1
2018-11-03T11:36:48.943Z,4.8
2018-11-03T11:37:48.913Z,5
2018-11-03T11:38:48.890Z,4.8
2018-11-03T11:39:48.881Z,4.9
2018-11-03T11:40:48.924Z,4.6
2018-11-03T11:41:48.870Z,4.8
2018-11-03T11:42:48.930Z,4.6
2018-11-03T11:43:48.878Z,4.6
2018-11-03T11:44:48.952Z,4.7
2018-11-03T11:45:48.931Z,4.6
2018-11-03T11:46:48.887Z,4.7
2018-11-03T11:47:48.881Z,5.4
2018-11-03T11:48:48.929Z,5.5
2018-11-03T11:49:48.878Z,5.9
2018-11-03T11:50:48.943Z,6.2
2018-11-03T11:51:48.887Z,6.4
2018-11-03T11:52:48.972Z,6.7
2018-11-03T11:53:48.901Z,6.9
2018-11-03T11:54:48.886Z,7.2
2018-11-03T11:55:48.949Z,7.4
2018-11-03T11:56:48.961Z,7.5
2018-11-03T11:57:48.897Z,7.6
2018-11-03T11:58:48.874Z,7.5
2018-11-03T11:59:48.882Z,7.5
2018-11-03T12:00:48.954Z,7.6
2018-11-03T12:01:48.934Z,7.6
2018-11-03T12:02:48.874Z,7.6
2018-11-03T12:03:48.877Z,8.1
2018-11-03T12:04:48.939Z,8.5
2018-11-03T12:05:48.884Z,8.5
2018-11-03T12:06:48.886Z,9.4
2018-11-03T12:07:48.958Z,9.7
2018-11-03T12:08:48.928Z,9.3
2018-11-03T12:09:48.950Z,8.9
2018-11-03T12:10:48.895Z,9.3
2018-11-03T12:11:48.905Z,8.7
2018-11-03T12:12:48.930Z,8.5
2018-11-03T12:13:48.876Z,9
2018-11-03T12:14:48.962Z,9.4
2018-11-03T12:15:49.693Z,9.6
2018-11-03T12:16:48.996Z,9.6
2018-11-03T12:17:48.879Z,9.8
2018-11-03T12:18:48.888Z,9.9
2018-11-03T12:19:48.887Z,9.5
2018-11-03T12:20:48.886Z,9.1
2018-11-03T12:21:48.932Z,8.7
2018-11-03T12:22:48.887Z,7.9
2018-11-03T12:23:48.950Z,7.9
2018-11-03T12:24:48.880Z,7.6
2018-11-03T12:25:49.026Z,7.7
2018-11-03T12:26:48.905Z,7.6
2018-11-03T12:27:48.938Z,7.4
2018-11-03T12:28:48.935Z,7.6
2018-11-03T12:29:48.952Z,7.9
2018-11-03T12:30:48.887Z,7.7
2018-11-03T12:31:48.900Z,8
2018-11-03T12:32:48.890Z,9.1
2018-11-03T12:33:48.960Z,9
2018-11-03T12:34:48.886Z,8.3
2018-11-03T12:35:48.946Z,8.1
2018-11-03T12:36:48.962Z,7.9
2018-11-03T12:37:48.934Z,8.3
2018-11-03T12:38:48.961Z,8.1
2018-11-03T12:39:48.886Z,7.5
2018-11-03T12:40:48.930Z,7.6
2018-11-03T12:41:48.886Z,7.4
2018-11-03T12:42:48.885Z,7.8
2018-11-03T12:43:48.939Z,7.5
2018-11-03T12:44:48.883Z,7.2
2018-11-03T12:45:48.966Z,7.2
2018-11-03T12:46:48.965Z,7
2018-11-03T12:47:48.888Z,7.4
2018-11-03T12:48:48.986Z,7.4
2018-11-03T12:49:48.885Z,8
2018-11-03T12:50:48.921Z,8.2
2018-11-03T12:51:48.877Z,7.7
2018-11-03T12:52:48.954Z,7.4
2018-11-03T12:53:49.753Z,7.1
2018-11-03T12:54:48.936Z,6.7
2018-11-03T12:55:48.881Z,6.2
2018-11-03T12:56:48.913Z,5.7
2018-11-03T12:57:48.984Z,5.7
2018-11-03T12:58:48.891Z,6.3
2018-11-03T12:59:48.890Z,6.6
2018-11-03T13:00:49.961Z,6.3
2018-11-03T13:01:48.907Z,6
2018-11-03T13:02:49.000Z,6
2018-11-03T13:03:48.956Z,6.2
2018-11-03T13:04:48.893Z,6.8
2018-11-03T13:05:48.897Z,6.7
2018-11-03T13:06:49.028Z,7
2018-11-03T13:07:49.002Z,7.5
2018-11-03T13:08:48.911Z,7.5
2018-11-03T13:09:48.990Z,7.9
2018-11-03T13:10:48.891Z,7.8
2018-11-03T13:11:48.949Z,8.8
2018-11-03T13:12:48.964Z,8.8
2018-11-03T13:13:48.976Z,8.2
2018-11-03T13:14:50.678Z,7.8
2018-11-03T13:15:51.316Z,8
2018-11-03T13:16:49.945Z,8.7
2018-11-03T13:17:50.759Z,9.1
2018-11-03T13:18:48.902Z,9.8
2018-11-03T13:19:48.947Z,9.7
2018-11-03T13:20:48.916Z,10.1
2018-11-03T13:21:48.871Z,10.5
2018-11-03T13:22:48.927Z,10.6
2018-11-03T13:23:48.931Z,10.2
2018-11-03T13:24:48.895Z,9.9
2018-11-03T13:25:48.917Z,10.5
2018-11-03T13:26:48.908Z,10.6
2018-11-03T13:27:48.878Z,10.8
2018-11-03T13:28:48.973Z,10.8
2018-11-03T13:29:48.898Z,10.9
2018-11-03T13:30:48.879Z,10.5
2018-11-03T13:31:48.956Z,10.4
2018-11-03T13:32:48.995Z,10.2
2018-11-03T13:33:48.993Z,10.6
2018-11-03T13:34:49.886Z,11.1
2018-11-03T13:35:48.942Z,11.3
2018-11-03T13:36:48.969Z,11
2018-11-03T13:37:48.886Z,10.8
2018-11-03T13:38:48.895Z,11
2018-11-03T13:39:48.957Z,10.7
2018-11-03T13:40:48.947Z,10.3
2018-11-03T13:41:49.011Z,10.2
2018-11-03T13:42:48.876Z,10.3
2018-11-03T13:43:48.952Z,10.2
2018-11-03T13:44:48.885Z,10.1
2018-11-03T13:45:52.544Z,9.7
2018-11-03T13:46:49.018Z,9.5
2018-11-03T13:47:51.112Z,9.9